Time;durP1;ratioP1;P1;durP2;ratioP2;P2;SDS_P1;SDS_P2;PMS_P1;PMS_P2;Temp;Humidity;BMP_temperature;BMP_pressure;BME280_temperature;BME280_humidity;BME280_pressure;Samples;Min_cycle;Max_cycle;Signal;HPM_P1;HPM_P2
2021/10/25 00:02:09;;;;;;;14.52;10.90;;;4.00;99.90;;;;;;5039636;28;20637;-76
2021/10/25 00:04:35;;;;;;;13.88;11.35;;;4.00;99.90;;;;;;5041129;28;20661;-77
2021/10/25 00:07:04;;;;;;;13.88;11.32;;;4.00;99.90;;;;;;5039574;28;20210;-75
2021/10/25 00:09:31;;;;;;;13.00;11.13;;;4.00;99.90;;;;;;5038684;28;20236;-76
2021/10/25 00:11:58;;;;;;;13.98;10.05;;;3.90;99.90;;;;;;5038052;28;20634;-76
2021/10/25 00:14:25;;;;;;;12.73;10.00;;;3.90;99.90;;;;;;5038047;28;20232;-75
2021/10/25 00:16:52;;;;;;;13.07;10.00;;;3.90;99.90;;;;;;5040157;28;20229;-75
2021/10/25 00:19:20;;;;;;;13.98;9.10;;;3.80;99.90;;;;;;5040972;28;20228;-75
2021/10/25 00:21:47;;;;;;;10.30;8.95;;;3.80;99.90;;;;;;5037886;28;20307;-74
2021/10/25 00:24:15;;;;;;;11.45;9.45;;;3.90;99.90;;;;;;5039435;28;20673;-75
2021/10/25 00:26:42;;;;;;;12.68;10.40;;;3.90;99.90;;;;;;5044448;28;20207;-76
2021/10/25 00:29:09;;;;;;;12.85;9.43;;;3.80;99.90;;;;;;5046860;28;20588;-75
2021/10/25 00:31:36;;;;;;;10.50;9.20;;;3.80;99.90;;;;;;5047056;28;20273;-75
2021/10/25 00:34:03;;;;;;;13.63;9.60;;;3.80;99.90;;;;;;5042394;28;20666;-75
2021/10/25 00:36:30;;;;;;;10.93;8.75;;;3.80;99.90;;;;;;5038428;28;20710;-75
2021/10/25 00:38:57;;;;;;;12.32;10.07;;;3.80;99.90;;;;;;5039434;28;20248;-75
2021/10/25 00:41:25;;;;;;;10.30;9.20;;;3.80;99.90;;;;;;5044685;28;20692;-75
2021/10/25 00:43:52;;;;;;;12.02;9.15;;;3.70;99.90;;;;;;5047076;28;20673;-75
2021/10/25 00:46:19;;;;;;;13.18;10.90;;;3.70;99.90;;;;;;5046627;28;20205;-76
2021/10/25 00:48:46;;;;;;;12.95;9.43;;;3.70;99.90;;;;;;5044506;28;20211;-75
2021/10/25 00:51:14;;;;;;;11.65;9.20;;;3.70;99.90;;;;;;5037746;28;20232;-75
2021/10/25 00:53:42;;;;;;;16.15;10.20;;;3.70;99.90;;;;;;5035935;28;20300;-75
2021/10/25 00:56:10;;;;;;;13.45;9.45;;;3.60;99.90;;;;;;5036167;28;20219;-75
2021/10/25 00:58:38;;;;;;;13.68;8.85;;;3.60;99.90;;;;;;5035504;28;20229;-75
2021/10/25 01:01:05;;;;;;;11.65;9.00;;;3.60;99.90;;;;;;5035280;28;20260;-75
2021/10/25 01:03:33;;;;;;;10.93;8.93;;;3.60;99.90;;;;;;5035387;28;20216;-76
2021/10/25 01:06:00;;;;;;;10.70;9.35;;;3.60;99.90;;;;;;5034894;28;20215;-75
2021/10/25 01:08:31;;;;;;;11.32;8.75;;;3.60;99.90;;;;;;5035617;28;20208;-75
2021/10/25 01:10:59;;;;;;;13.80;9.63;;;3.60;99.90;;;;;;5035958;28;20276;-77
2021/10/25 01:13:26;;;;;;;11.23;8.88;;;3.60;99.90;;;;;;5035642;28;20208;-75
2021/10/25 01:15:55;;;;;;;9.30;8.18;;;3.60;99.90;;;;;;5035463;28;20243;-75
2021/10/25 01:18:21;;;;;;;9.25;8.35;;;3.60;99.90;;;;;;5036447;28;20311;-75
2021/10/25 01:20:50;;;;;;;10.13;9.05;;;3.60;99.90;;;;;;5036551;28;20233;-75
2021/10/25 01:23:16;;;;;;;10.68;8.02;;;3.60;99.90;;;;;;5036449;28;20307;-75
2021/10/25 01:25:44;;;;;;;11.02;8.35;;;3.50;99.90;;;;;;5037653;28;20213;-75
2021/10/25 01:28:12;;;;;;;10.35;8.57;;;3.60;99.90;;;;;;5042884;28;20295;-75
2021/10/25 01:30:39;;;;;;;11.52;8.52;;;3.60;99.90;;;;;;5042535;28;20260;-76
2021/10/25 01:33:10;;;;;;;10.88;7.82;;;3.60;99.90;;;;;;5044865;28;20237;-75
2021/10/25 01:35:38;;;;;;;8.90;7.32;;;3.50;99.90;;;;;;5047607;28;20776;-76
2021/10/25 01:38:06;;;;;;;9.95;8.60;;;3.60;99.90;;;;;;5042629;28;20233;-74
2021/10/25 01:40:33;;;;;;;8.77;7.15;;;3.60;99.90;;;;;;5052466;28;20298;-75
2021/10/25 01:43:00;;;;;;;8.35;7.53;;;3.50;99.90;;;;;;5038057;28;20213;-74
2021/10/25 01:45:27;;;;;;;7.68;6.75;;;3.50;99.90;;;;;;5035493;28;20325;-76
2021/10/25 01:47:56;;;;;;;9.27;7.25;;;3.50;99.90;;;;;;5035515;28;20244;-74
2021/10/25 01:50:23;;;;;;;7.43;6.72;;;3.60;99.90;;;;;;5034632;28;20756;-75
2021/10/25 01:52:50;;;;;;;10.95;7.70;;;3.50;99.90;;;;;;5041448;28;20300;-75
2021/10/25 01:55:19;;;;;;;8.32;6.93;;;3.60;99.90;;;;;;5043008;28;20208;-76
2021/10/25 01:57:46;;;;;;;7.70;6.93;;;3.60;99.90;;;;;;5035059;28;20259;-76
2021/10/25 02:00:13;;;;;;;8.52;6.57;;;3.60;99.90;;;;;;5034714;28;20228;-76
2021/10/25 02:02:40;;;;;;;7.35;6.60;;;3.60;99.90;;;;;;5034515;28;20215;-76
2021/10/25 02:05:07;;;;;;;7.30;6.47;;;3.60;99.90;;;;;;5034768;28;20213;-75
2021/10/25 02:07:34;;;;;;;12.73;8.38;;;3.60;99.90;;;;;;5033984;28;20294;-77
2021/10/25 02:10:01;;;;;;;7.07;6.38;;;3.50;99.90;;;;;;5033791;28;20275;-76
2021/10/25 02:12:29;;;;;;;8.20;6.75;;;3.50;99.90;;;;;;5034234;28;20268;-76
2021/10/25 02:14:56;;;;;;;6.70;6.05;;;3.50;99.90;;;;;;5034245;28;20300;-76
2021/10/25 02:17:23;;;;;;;7.95;6.75;;;3.50;99.90;;;;;;5033875;28;20256;-75
2021/10/25 02:19:50;;;;;;;9.85;6.63;;;3.50;99.90;;;;;;5033568;28;20230;-75
2021/10/25 02:22:19;;;;;;;8.02;7.22;;;3.50;99.90;;;;;;5034207;28;20205;-76
2021/10/25 02:24:47;;;;;;;9.40;7.70;;;3.50;99.90;;;;;;5034351;28;20217;-75
2021/10/25 02:27:14;;;;;;;8.10;6.88;;;3.50;99.90;;;;;;5033512;28;20213;-75
2021/10/25 02:29:43;;;;;;;8.48;7.25;;;3.50;99.90;;;;;;5033634;28;20224;-75
2021/10/25 02:32:12;;;;;;;8.10;7.28;;;3.50;99.90;;;;;;5033331;28;20310;-75
2021/10/25 02:34:39;;;;;;;8.80;7.35;;;3.40;99.90;;;;;;5033880;28;20204;-75
2021/10/25 02:37:07;;;;;;;7.57;6.38;;;3.40;99.90;;;;;;5033356;28;20230;-75
2021/10/25 02:39:33;;;;;;;10.10;7.68;;;3.40;99.90;;;;;;5032956;28;20595;-75
2021/10/25 02:42:00;;;;;;;7.15;6.35;;;3.40;99.90;;;;;;5033569;28;20584;-76
2021/10/25 02:44:27;;;;;;;11.00;6.75;;;3.40;99.90;;;;;;5033661;28;20304;-75
2021/10/25 02:46:56;;;;;;;8.52;6.90;;;3.40;99.90;;;;;;5033268;28;20209;-74
2021/10/25 02:49:23;;;;;;;7.88;6.50;;;3.30;99.90;;;;;;5032515;28;20236;-76
2021/10/25 02:51:50;;;;;;;6.10;5.45;;;3.40;99.90;;;;;;5033606;28;20215;-75
2021/10/25 02:54:17;;;;;;;9.07;7.05;;;3.30;99.90;;;;;;5033523;28;20218;-75
2021/10/25 02:56:44;;;;;;;8.15;6.32;;;3.30;99.90;;;;;;5032747;28;20286;-75
2021/10/25 02:59:11;;;;;;;7.40;6.60;;;3.40;99.90;;;;;;5032716;28;20310;-76
2021/10/25 03:01:39;;;;;;;8.90;6.30;;;3.40;99.90;;;;;;5033541;28;20229;-76
2021/10/25 03:04:08;;;;;;;8.25;6.00;;;3.40;99.90;;;;;;5033593;28;20295;-75
2021/10/25 03:06:36;;;;;;;8.85;6.70;;;3.30;99.90;;;;;;5033567;28;20211;-76
2021/10/25 03:09:03;;;;;;;8.32;6.45;;;3.20;99.90;;;;;;5033366;28;20290;-76
2021/10/25 03:11:30;;;;;;;7.78;6.70;;;3.20;99.90;;;;;;5033580;28;20214;-75
2021/10/25 03:13:58;;;;;;;8.40;6.25;;;3.10;99.90;;;;;;5034139;28;20298;-75
2021/10/25 03:16:26;;;;;;;8.38;6.00;;;3.10;99.90;;;;;;5033377;28;20203;-75
2021/10/25 03:18:53;;;;;;;6.97;6.22;;;3.10;99.90;;;;;;5032423;28;20228;-76
2021/10/25 03:21:22;;;;;;;6.65;5.95;;;3.10;99.90;;;;;;5032918;28;20223;-76
2021/10/25 03:23:50;;;;;;;7.35;6.18;;;3.10;99.90;;;;;;5033580;28;20211;-75
2021/10/25 03:26:18;;;;;;;7.95;6.28;;;3.10;99.90;;;;;;5033222;28;20219;-75
2021/10/25 03:28:44;;;;;;;9.55;6.65;;;3.10;99.90;;;;;;5032853;28;20231;-75
2021/10/25 03:31:12;;;;;;;7.32;6.03;;;3.10;99.90;;;;;;5033649;28;20316;-75
2021/10/25 03:33:39;;;;;;;7.28;5.55;;;3.20;99.90;;;;;;5032891;28;20239;-75
2021/10/25 03:36:07;;;;;;;6.68;5.88;;;3.10;99.90;;;;;;5033389;28;20299;-75
2021/10/25 03:38:38;;;;;;;7.20;5.72;;;3.10;99.90;;;;;;5032653;28;20236;-76
2021/10/25 03:41:11;;;;;;;8.35;6.18;;;3.10;99.90;;;;;;5032938;28;20238;-76
2021/10/25 03:43:43;;;;;;;6.30;5.70;;;3.20;99.90;;;;;;5032886;28;20561;-76
2021/10/25 03:46:17;;;;;;;7.85;5.95;;;3.10;99.90;;;;;;5032859;28;20218;-75
2021/10/25 03:48:48;;;;;;;7.78;5.65;;;3.20;99.90;;;;;;5032305;28;20397;-76
2021/10/25 03:51:16;;;;;;;6.45;5.85;;;3.20;99.90;;;;;;5032869;28;20216;-76
2021/10/25 03:53:52;;;;;;;7.18;6.30;;;3.20;99.90;;;;;;5032298;28;20253;-75
2021/10/25 03:56:30;;;;;;;6.78;5.95;;;3.30;99.90;;;;;;5032519;28;20837;-75
2021/10/25 04:26:57;;;;;;;12.27;5.13;;;3.20;99.90;;;;;;5032279;28;20191;-76
2021/10/25 04:29:26;;;;;;;6.28;4.78;;;3.10;99.90;;;;;;5038838;28;20641;-76
2021/10/25 04:31:53;;;;;;;6.40;4.95;;;3.10;99.90;;;;;;5041465;28;20241;-75
2021/10/25 04:34:20;;;;;;;5.05;4.57;;;3.10;99.90;;;;;;5043606;28;20209;-76
2021/10/25 04:36:47;;;;;;;6.45;5.13;;;3.10;99.90;;;;;;5044847;28;20302;-75
2021/10/25 04:39:15;;;;;;;6.32;5.30;;;3.10;99.90;;;;;;5046096;28;20239;-75
2021/10/25 04:41:43;;;;;;;9.57;5.40;;;3.10;99.90;;;;;;5043875;28;20208;-75
2021/10/25 04:44:10;;;;;;;6.95;5.45;;;3.10;99.90;;;;;;5038576;28;20561;-75
2021/10/25 04:46:37;;;;;;;5.45;4.88;;;3.10;99.90;;;;;;5035381;28;20232;-75
2021/10/25 04:49:04;;;;;;;5.63;5.07;;;3.10;99.90;;;;;;5035424;28;20524;-76
2021/10/25 04:51:34;;;;;;;5.85;5.18;;;3.20;99.90;;;;;;5034383;28;20216;-75
2021/10/25 04:54:01;;;;;;;5.53;4.70;;;3.10;99.90;;;;;;5042892;28;20208;-75
2021/10/25 04:56:28;;;;;;;6.05;5.15;;;3.00;99.90;;;;;;5047537;28;20207;-75
2021/10/25 04:58:56;;;;;;;7.40;5.10;;;3.10;99.90;;;;;;5035320;28;20231;-75
2021/10/25 05:01:23;;;;;;;6.50;5.20;;;3.00;99.90;;;;;;5034151;28;20301;-74
2021/10/25 05:03:50;;;;;;;6.10;5.07;;;3.00;99.90;;;;;;5034137;28;20218;-76
2021/10/25 05:06:18;;;;;;;6.18;5.28;;;3.00;99.90;;;;;;5033714;28;20569;-75
2021/10/25 05:08:45;;;;;;;5.70;4.93;;;3.00;99.90;;;;;;5033802;28;20203;-76
2021/10/25 05:11:13;;;;;;;6.55;5.40;;;3.00;99.90;;;;;;5034211;28;20252;-75
2021/10/25 05:13:39;;;;;;;8.02;5.50;;;3.00;99.90;;;;;;5034236;28;20216;-76
2021/10/25 05:16:08;;;;;;;5.75;4.90;;;3.00;99.90;;;;;;5034443;28;20213;-75
2021/10/25 05:18:35;;;;;;;7.10;5.00;;;3.00;99.90;;;;;;5033489;28;20323;-75
2021/10/25 05:21:02;;;;;;;6.50;5.20;;;3.10;99.90;;;;;;5034193;28;20233;-75
2021/10/25 05:23:29;;;;;;;5.90;4.88;;;3.10;99.90;;;;;;5033938;28;20212;-75
2021/10/25 05:25:56;;;;;;;6.50;5.05;;;3.10;99.90;;;;;;5033868;28;20695;-75
2021/10/25 05:28:22;;;;;;;7.32;5.25;;;3.10;99.90;;;;;;5033540;28;20212;-75
2021/10/25 05:30:49;;;;;;;7.18;5.30;;;3.10;99.90;;;;;;5033448;28;20224;-75
2021/10/25 05:33:17;;;;;;;6.00;4.97;;;3.10;99.90;;;;;;5034169;28;20230;-76
2021/10/25 05:35:44;;;;;;;6.72;5.15;;;3.00;99.90;;;;;;5034188;28;20205;-76
2021/10/25 05:38:12;;;;;;;6.72;5.20;;;3.00;99.90;;;;;;5033897;28;20235;-75
2021/10/25 05:40:39;;;;;;;6.05;5.45;;;3.00;99.90;;;;;;5031997;28;20692;-75
2021/10/25 05:43:07;;;;;;;9.90;5.47;;;3.00;99.90;;;;;;5033615;28;20212;-75
2021/10/25 05:45:34;;;;;;;8.52;5.25;;;3.00;99.90;;;;;;5033467;28;20672;-75
2021/10/25 05:48:01;;;;;;;6.95;6.22;;;3.00;99.90;;;;;;5033230;28;20294;-75
2021/10/25 05:50:29;;;;;;;6.63;5.77;;;3.00;99.90;;;;;;4995655;28;1087920;-75
2021/10/25 05:52:56;;;;;;;9.77;5.25;;;3.00;99.90;;;;;;5034391;28;20208;-76
2021/10/25 05:55:24;;;;;;;9.70;5.78;;;3.00;99.90;;;;;;5034888;28;20298;-76
2021/10/25 05:57:52;;;;;;;11.10;5.95;;;3.00;99.90;;;;;;5034980;28;20249;-76
2021/10/25 06:00:22;;;;;;;9.00;7.05;;;3.00;99.90;;;;;;5034229;28;20269;-75
2021/10/25 06:02:53;;;;;;;9.57;6.30;;;3.00;99.90;;;;;;5034784;28;20302;-75
2021/10/25 06:05:20;;;;;;;8.45;6.55;;;3.10;99.90;;;;;;5034804;28;20203;-75
2021/10/25 06:07:49;;;;;;;9.73;6.15;;;3.10;99.90;;;;;;5035446;28;20540;-76
2021/10/25 06:10:17;;;;;;;6.78;5.20;;;3.10;99.90;;;;;;5034738;28;20321;-75
2021/10/25 06:12:46;;;;;;;7.65;5.85;;;3.10;99.90;;;;;;5034784;28;20211;-75
2021/10/25 06:15:16;;;;;;;6.18;5.40;;;3.10;99.90;;;;;;5034958;28;20320;-76
2021/10/25 06:17:53;;;;;;;7.40;6.30;;;3.10;99.90;;;;;;5034603;28;20236;-76
2021/10/25 06:20:20;;;;;;;6.22;5.45;;;3.10;99.90;;;;;;5033481;28;20226;-76
2021/10/25 06:22:48;;;;;;;17.95;9.77;;;3.10;99.90;;;;;;5033543;28;20200;-75
2021/10/25 06:25:16;;;;;;;8.45;5.82;;;3.10;99.90;;;;;;5027388;28;20234;-75
2021/10/25 06:27:43;;;;;;;8.98;6.80;;;3.10;99.90;;;;;;5034315;28;20200;-74
2021/10/25 06:30:11;;;;;;;8.80;6.65;;;3.10;99.90;;;;;;5033385;28;20720;-75
2021/10/25 06:32:38;;;;;;;7.00;6.25;;;3.00;99.90;;;;;;5033923;28;20291;-76
2021/10/25 06:35:09;;;;;;;7.47;5.72;;;3.10;99.90;;;;;;5034717;28;20267;-75
2021/10/25 06:37:49;;;;;;;11.23;7.80;;;3.20;99.90;;;;;;5033613;28;20227;-76
2021/10/25 06:40:17;;;;;;;9.65;6.72;;;3.20;99.90;;;;;;5033150;28;20250;-76
2021/10/25 06:42:44;;;;;;;6.82;6.13;;;3.30;99.90;;;;;;5034034;28;20239;-76
2021/10/25 06:45:14;;;;;;;11.13;6.50;;;3.40;99.90;;;;;;5034602;28;20261;-75
2021/10/25 06:47:41;;;;;;;9.90;6.50;;;3.50;99.90;;;;;;5034782;28;20216;-74
2021/10/25 06:50:09;;;;;;;9.90;6.55;;;3.60;99.90;;;;;;5037679;28;20239;-74
2021/10/25 06:52:36;;;;;;;10.75;6.30;;;3.70;99.90;;;;;;5040439;28;20295;-75
2021/10/25 06:55:03;;;;;;;9.68;5.95;;;3.70;99.90;;;;;;5041477;28;20215;-76
2021/10/25 06:57:32;;;;;;;8.85;5.82;;;3.80;99.90;;;;;;5040952;28;20209;-77
2021/10/25 07:00:00;;;;;;;8.95;5.13;;;3.90;99.90;;;;;;5037618;28;20219;-73
2021/10/25 07:02:27;;;;;;;8.27;4.90;;;3.90;99.90;;;;;;5034659;28;20236;-75
2021/10/25 07:04:54;;;;;;;6.88;5.35;;;4.00;99.90;;;;;;5035353;28;20232;-74
2021/10/25 07:07:24;;;;;;;7.00;5.70;;;4.00;99.90;;;;;;5032921;28;20219;-74
2021/10/25 07:09:51;;;;;;;7.90;5.40;;;4.00;99.90;;;;;;5033771;28;20228;-75
2021/10/25 07:12:19;;;;;;;11.32;5.30;;;4.00;99.90;;;;;;5033585;28;20730;-74
2021/10/25 07:14:51;;;;;;;11.75;5.90;;;4.10;99.90;;;;;;5033373;28;20279;-75
2021/10/25 07:17:24;;;;;;;7.45;5.18;;;4.10;99.90;;;;;;5033858;28;20201;-75
2021/10/25 07:20:07;;;;;;;7.60;5.60;;;4.20;99.90;;;;;;5033802;28;20683;-75
2021/10/25 07:23:19;;;;;;;9.73;5.15;;;4.20;99.90;;;;;;5034194;28;20231;-75
2021/10/25 08:07:04;;;;;;;5.00;4.55;;;6.80;87.10;;;;;;5024732;28;20202;-78
2021/10/25 08:09:48;;;;;;;4.55;4.15;;;7.00;83.40;;;;;;5039764;28;20269;-79
2021/10/25 08:12:17;;;;;;;6.28;4.47;;;6.90;80.30;;;;;;5038300;28;20231;-78
2021/10/25 08:14:49;;;;;;;5.00;3.75;;;7.00;79.20;;;;;;5032417;28;20271;-78
2021/10/25 08:17:19;;;;;;;6.45;4.47;;;7.10;80.30;;;;;;5020173;28;20676;-77
2021/10/25 08:19:48;;;;;;;6.15;4.35;;;7.30;78.70;;;;;;5029457;28;20223;-78
2021/10/25 08:22:17;;;;;;;4.45;4.00;;;7.20;77.10;;;;;;5038687;28;20227;-79
2021/10/25 08:24:46;;;;;;;4.85;3.83;;;7.40;76.20;;;;;;5039680;28;20271;-78
2021/10/25 08:27:15;;;;;;;4.90;4.40;;;7.50;76.10;;;;;;5040836;28;20298;-78
2021/10/25 08:29:45;;;;;;;5.65;4.53;;;7.50;75.10;;;;;;5046369;28;20195;-79
2021/10/25 08:32:23;;;;;;;6.10;4.07;;;7.70;75.30;;;;;;5057342;28;20214;-79
2021/10/25 08:35:01;;;;;;;4.43;3.75;;;7.70;73.80;;;;;;5057751;28;20226;-83
2021/10/25 08:40:10;;;;;;;5.88;3.83;;;8.30;72.30;;;;;;4987036;28;20313;-81
2021/10/25 08:42:41;;;;;;;5.18;3.75;;;8.40;70.20;;;;;;5051168;28;20232;-82
2021/10/25 08:45:12;;;;;;;4.63;4.22;;;8.60;69.50;;;;;;5040494;28;20203;-80
2021/10/25 08:47:43;;;;;;;4.88;4.38;;;8.70;68.10;;;;;;5042037;28;20234;-82
2021/10/25 08:50:14;;;;;;;8.40;6.20;;;8.80;67.60;;;;;;5041811;28;20180;-82
2021/10/25 08:52:41;;;;;;;9.45;6.70;;;8.90;67.60;;;;;;5041817;28;20257;-82
2021/10/25 08:55:11;;;;;;;6.45;5.80;;;8.80;67.60;;;;;;5024803;28;20208;-82
2021/10/25 08:57:38;;;;;;;8.23;6.85;;;8.90;67.70;;;;;;5030928;28;20227;-81
2021/10/25 09:00:07;;;;;;;6.95;6.25;;;8.80;68.40;;;;;;5030423;28;20233;-81
2021/10/25 09:02:34;;;;;;;9.40;6.70;;;8.80;69.10;;;;;;5046416;28;20204;-80
2021/10/25 09:05:05;;;;;;;6.43;5.75;;;8.80;69.50;;;;;;5030835;28;20672;-80
2021/10/25 09:07:48;;;;;;;5.85;5.07;;;8.80;68.80;;;;;;5018126;28;20235;-81
2021/10/25 09:10:21;;;;;;;6.50;5.15;;;8.80;68.50;;;;;;5024300;28;20204;-80
2021/10/25 09:12:54;;;;;;;5.60;5.10;;;8.90;67.60;;;;;;5028937;28;20197;-81
2021/10/25 09:15:21;;;;;;;5.07;4.57;;;9.00;67.70;;;;;;5030256;28;20236;-83
2021/10/25 09:17:48;;;;;;;7.63;5.45;;;9.00;67.00;;;;;;5022603;28;20239;-82
2021/10/25 09:20:17;;;;;;;6.13;5.53;;;9.00;68.40;;;;;;5024031;28;20231;-82
2021/10/25 09:22:45;;;;;;;6.10;5.50;;;9.10;67.80;;;;;;5031258;28;20231;-80
2021/10/25 09:25:13;;;;;;;9.43;6.30;;;9.00;69.00;;;;;;5031646;28;20239;-79
2021/10/25 09:27:44;;;;;;;7.90;5.88;;;9.10;69.30;;;;;;5027779;28;20198;-81
2021/10/25 09:30:15;;;;;;;7.25;5.78;;;9.20;69.00;;;;;;5027310;28;20204;-81
2021/10/25 09:32:45;;;;;;;6.60;5.53;;;9.40;68.00;;;;;;5032796;28;20212;-80
2021/10/25 09:35:22;;;;;;;7.05;5.70;;;9.50;68.10;;;;;;5035861;28;20193;-79
2021/10/25 09:37:58;;;;;;;5.40;4.80;;;9.70;67.30;;;;;;5037247;28;20209;-79
2021/10/25 09:40:33;;;;;;;7.70;5.40;;;9.70;66.00;;;;;;5039333;28;20233;-80
2021/10/25 09:43:14;;;;;;;6.10;5.50;;;10.00;64.80;;;;;;5055997;28;20188;-80
2021/10/25 09:45:58;;;;;;;7.82;6.70;;;10.10;63.20;;;;;;5044147;28;20205;-79
2021/10/25 09:51:09;;;;;;;7.57;5.65;;;10.50;61.20;;;;;;5024223;28;20673;-78
2021/10/25 09:53:40;;;;;;;8.80;5.90;;;10.40;59.50;;;;;;5024733;28;20225;-78
2021/10/25 09:56:10;;;;;;;8.02;5.95;;;10.30;60.50;;;;;;5025722;28;20221;-81
2021/10/25 09:58:55;;;;;;;7.40;6.65;;;10.40;60.80;;;;;;5021254;28;20303;-78
2021/10/25 10:01:26;;;;;;;9.45;6.13;;;10.60;60.00;;;;;;5020475;28;20226;-80
2021/10/25 10:03:53;;;;;;;7.95;6.15;;;10.70;59.30;;;;;;5022673;28;20205;-79
2021/10/25 10:06:21;;;;;;;6.90;6.30;;;10.90;59.50;;;;;;5035336;28;20214;-78
2021/10/25 10:08:50;;;;;;;7.57;6.28;;;10.90;57.90;;;;;;5041401;28;20218;-77
2021/10/25 10:11:18;;;;;;;6.60;6.00;;;10.70;58.50;;;;;;5031929;28;20239;-79
2021/10/25 10:13:45;;;;;;;7.85;7.03;;;10.90;59.00;;;;;;5035513;28;20256;-79
2021/10/25 10:16:12;;;;;;;7.80;6.95;;;11.10;58.40;;;;;;5037356;28;20548;-79
2021/10/25 10:18:43;;;;;;;9.18;6.75;;;11.20;56.90;;;;;;5041508;28;20489;-79
2021/10/25 10:21:13;;;;;;;7.60;6.90;;;11.40;57.10;;;;;;5041018;28;20297;-78
2021/10/25 10:23:43;;;;;;;9.20;6.85;;;11.40;56.30;;;;;;5041651;28;20218;-79
2021/10/25 10:26:16;;;;;;;7.40;6.70;;;11.50;56.30;;;;;;5041417;28;20211;-79
2021/10/25 10:28:47;;;;;;;8.30;7.50;;;11.60;56.70;;;;;;5041094;28;20205;-80
2021/10/25 10:31:16;;;;;;;11.70;7.00;;;11.70;55.50;;;;;;5042242;28;20649;-79
2021/10/25 10:33:47;;;;;;;8.27;6.50;;;11.60;54.70;;;;;;5027561;28;20208;-78
2021/10/25 10:36:21;;;;;;;9.82;7.40;;;11.70;53.80;;;;;;5022653;28;20259;-80
2021/10/25 10:38:51;;;;;;;8.02;6.88;;;11.80;53.00;;;;;;5030432;28;20209;-76
2021/10/25 10:41:22;;;;;;;8.30;6.85;;;11.90;53.00;;;;;;5037793;28;20215;-75
2021/10/25 10:44:01;;;;;;;8.10;6.00;;;12.00;53.00;;;;;;5037878;28;20191;-76
2021/10/25 10:46:48;;;;;;;10.15;6.30;;;12.00;51.70;;;;;;5054066;28;20195;-76
2021/10/25 10:49:24;;;;;;;7.20;6.43;;;12.10;51.20;;;;;;5055404;28;20207;-78
2021/10/25 10:52:24;;;;;;;6.57;5.97;;;12.30;51.30;;;;;;5053279;28;20261;-78
2021/10/25 10:54:57;;;;;;;10.70;7.38;;;12.40;51.50;;;;;;4985129;28;20302;-77
2021/10/25 10:57:45;;;;;;;5.78;5.28;;;12.50;50.40;;;;;;5018170;28;20215;-78
2021/10/25 11:00:21;;;;;;;6.53;5.60;;;12.50;49.20;;;;;;5019020;28;20223;-79
2021/10/25 11:02:52;;;;;;;6.53;5.90;;;12.50;49.70;;;;;;5019829;28;20278;-77
2021/10/25 11:05:32;;;;;;;6.82;5.45;;;12.50;49.50;;;;;;5045651;28;20646;-79
2021/10/25 11:08:11;;;;;;;6.60;5.15;;;12.40;51.50;;;;;;5043786;28;20207;-77
2021/10/25 11:10:40;;;;;;;6.72;4.45;;;12.30;51.40;;;;;;5030616;28;20252;-79
2021/10/25 11:13:13;;;;;;;5.65;4.78;;;12.40;51.00;;;;;;5029919;28;20211;-81
2021/10/25 11:15:52;;;;;;;5.03;4.63;;;12.60;50.10;;;;;;5049790;28;20721;-77
2021/10/25 11:18:24;;;;;;;6.60;5.20;;;12.70;49.70;;;;;;5042423;28;20234;-77
2021/10/25 11:20:53;;;;;;;5.57;4.60;;;12.70;49.20;;;;;;5042193;28;20238;-76
2021/10/25 11:23:20;;;;;;;5.88;4.88;;;12.80;49.70;;;;;;5040147;28;20268;-76
2021/10/25 11:25:47;;;;;;;5.53;4.20;;;13.00;49.30;;;;;;5029189;28;20230;-77
2021/10/25 11:28:18;;;;;;;6.20;5.30;;;13.20;48.50;;;;;;5030029;28;20314;-78
2021/10/25 11:30:46;;;;;;;5.85;4.43;;;13.30;48.30;;;;;;5007381;28;20279;-78
2021/10/25 11:33:19;;;;;;;6.55;5.20;;;13.10;47.30;;;;;;5018043;28;20268;-77
2021/10/25 11:35:51;;;;;;;8.10;5.05;;;13.10;48.60;;;;;;5029995;28;20216;-77
2021/10/25 11:38:19;;;;;;;5.43;4.93;;;13.10;47.80;;;;;;5025780;28;20298;-77
2021/10/25 11:40:46;;;;;;;5.80;4.65;;;13.20;48.10;;;;;;5017725;28;20228;-77
2021/10/25 11:43:13;;;;;;;7.53;4.00;;;13.30;48.30;;;;;;5014859;28;20216;-79
2021/10/25 11:45:43;;;;;;;4.97;4.55;;;13.40;48.70;;;;;;5023297;28;20230;-77
2021/10/25 11:48:10;;;;;;;6.22;4.15;;;13.50;47.90;;;;;;5024418;28;20578;-77
2021/10/25 11:50:38;;;;;;;6.38;4.35;;;13.60;48.20;;;;;;5020369;28;20247;-78
2021/10/25 11:53:08;;;;;;;6.57;4.05;;;13.70;48.20;;;;;;5021219;28;20207;-78
2021/10/25 11:55:38;;;;;;;8.88;4.25;;;13.80;47.90;;;;;;5032645;28;20306;-77
2021/10/25 11:58:07;;;;;;;4.30;3.90;;;13.80;47.70;;;;;;5028748;28;20204;-78
2021/10/25 12:00:38;;;;;;;4.90;4.40;;;13.70;47.20;;;;;;5020490;28;20227;-77
2021/10/25 12:03:08;;;;;;;6.88;4.25;;;13.50;47.70;;;;;;5020598;28;20645;-78
2021/10/25 12:05:36;;;;;;;4.93;4.18;;;13.60;47.10;;;;;;5032040;28;20207;-77
2021/10/25 12:08:03;;;;;;;4.07;3.67;;;13.50;47.00;;;;;;5032965;28;20272;-77
2021/10/25 12:10:31;;;;;;;6.55;4.40;;;13.80;47.10;;;;;;5019451;28;20216;-79
2021/10/25 12:13:00;;;;;;;4.57;4.05;;;13.90;47.00;;;;;;5018801;28;20232;-79
2021/10/25 12:15:28;;;;;;;5.35;4.70;;;14.10;46.20;;;;;;5019063;28;20227;-77
2021/10/25 12:17:58;;;;;;;4.15;3.75;;;14.30;45.30;;;;;;5028679;28;20210;-78
2021/10/25 12:20:28;;;;;;;6.68;3.50;;;14.40;44.50;;;;;;5040420;28;20255;-80
2021/10/25 12:23:00;;;;;;;4.28;3.88;;;14.40;43.60;;;;;;5042117;28;20207;-79
2021/10/25 12:25:27;;;;;;;4.20;3.80;;;14.60;43.80;;;;;;5044090;28;20560;-80
2021/10/25 12:27:58;;;;;;;5.47;4.07;;;14.70;43.90;;;;;;5044602;28;20237;-79
2021/10/25 12:30:27;;;;;;;4.78;4.03;;;14.60;43.80;;;;;;5045836;28;20216;-77
2021/10/25 12:32:56;;;;;;;6.18;3.83;;;14.60;42.90;;;;;;5039100;28;20204;-78
2021/10/25 12:35:37;;;;;;;4.65;4.10;;;14.40;43.60;;;;;;5029454;28;20199;-79
2021/10/25 12:38:05;;;;;;;5.30;4.40;;;14.40;43.60;;;;;;5022044;28;20262;-78
2021/10/25 12:40:38;;;;;;;6.57;3.70;;;14.50;43.70;;;;;;5027500;28;20232;-78
2021/10/25 12:43:07;;;;;;;3.90;3.10;;;14.70;43.90;;;;;;5042625;28;20224;-78
2021/10/25 12:45:40;;;;;;;5.93;3.90;;;14.90;43.30;;;;;;5042511;28;20663;-81
2021/10/25 12:48:08;;;;;;;6.75;3.90;;;15.00;42.60;;;;;;5043497;28;20208;-79
2021/10/25 12:50:38;;;;;;;5.07;3.73;;;15.10;41.50;;;;;;5052839;28;20331;-77
2021/10/25 12:53:06;;;;;;;4.05;3.40;;;14.90;41.20;;;;;;5053441;28;20450;-81
2021/10/25 12:55:34;;;;;;;4.67;4.17;;;15.00;40.40;;;;;;5049957;28;20439;-78
2021/10/25 12:58:01;;;;;;;4.85;3.92;;;15.00;40.10;;;;;;5058238;28;20447;-79
2021/10/25 13:00:29;;;;;;;7.45;3.80;;;15.10;40.20;;;;;;5053029;28;20264;-79
2021/10/25 13:02:56;;;;;;;8.95;3.75;;;15.20;40.10;;;;;;5042225;28;20204;-79
2021/10/25 13:05:26;;;;;;;5.43;3.83;;;15.30;40.00;;;;;;5040991;28;20660;-78
2021/10/25 13:07:55;;;;;;;4.43;3.90;;;15.30;39.50;;;;;;5040379;28;20219;-78
2021/10/25 13:10:24;;;;;;;6.10;3.73;;;15.10;40.30;;;;;;5021065;28;20465;-79
2021/10/25 13:12:52;;;;;;;4.00;3.60;;;15.20;40.40;;;;;;5021578;28;20967;-79
2021/10/25 13:15:19;;;;;;;4.60;3.77;;;15.30;40.30;;;;;;5041394;28;20220;-78
2021/10/25 13:17:46;;;;;;;5.60;3.40;;;15.10;40.20;;;;;;5040477;28;20542;-79
2021/10/25 13:20:17;;;;;;;4.50;3.40;;;15.10;40.10;;;;;;5020526;28;20987;-78
2021/10/25 13:22:45;;;;;;;5.10;3.47;;;15.30;40.00;;;;;;5038828;28;20481;-77
2021/10/25 13:25:13;;;;;;;3.77;3.10;;;15.30;40.40;;;;;;5053100;28;20443;-79
2021/10/25 13:27:42;;;;;;;3.97;3.33;;;15.40;40.50;;;;;;5041311;28;20452;-78
2021/10/25 13:30:11;;;;;;;3.93;3.50;;;15.40;40.30;;;;;;5037540;28;20455;-79
2021/10/25 13:32:38;;;;;;;4.10;3.60;;;15.50;40.40;;;;;;5037313;23;21031;-76
2021/10/25 13:35:06;;;;;;;3.53;3.23;;;15.50;39.70;;;;;;5028219;28;20452;-74
2021/10/25 13:37:36;;;;;;;4.10;3.40;;;15.60;40.20;;;;;;5035979;28;20459;-74
2021/10/25 13:40:07;;;;;;;6.27;3.63;;;15.60;41.10;;;;;;5030226;28;20537;-76
2021/10/25 13:42:37;;;;;;;7.00;3.63;;;15.50;40.50;;;;;;5037253;28;20449;-76
2021/10/25 13:45:04;;;;;;;3.67;3.00;;;15.50;40.90;;;;;;5024938;28;20454;-75
2021/10/25 13:47:33;;;;;;;4.28;3.70;;;15.30;40.90;;;;;;5017232;28;20556;-74
2021/10/25 13:50:02;;;;;;;3.77;3.33;;;15.40;40.50;;;;;;5019077;28;20232;-75
2021/10/25 13:52:29;;;;;;;6.47;3.37;;;15.40;40.40;;;;;;5021691;28;20508;-74
2021/10/25 13:54:56;;;;;;;5.27;3.47;;;15.50;40.00;;;;;;5018650;28;20815;-75
2021/10/25 13:57:25;;;;;;;4.30;3.87;;;15.50;39.60;;;;;;5018066;28;20913;-74
2021/10/25 13:59:56;;;;;;;3.87;3.53;;;15.40;39.50;;;;;;5016253;28;20541;-75
2021/10/25 14:02:28;;;;;;;4.27;3.60;;;15.40;39.50;;;;;;5016265;28;20484;-76
2021/10/25 14:04:57;;;;;;;7.30;3.30;;;15.40;40.20;;;;;;5001244;28;20458;-77
2021/10/25 14:07:30;;;;;;;8.60;3.53;;;15.50;40.00;;;;;;5018711;28;20533;-77
2021/10/25 14:10:03;;;;;;;4.70;3.37;;;15.50;39.00;;;;;;5018638;28;20534;-77
2021/10/25 14:12:30;;;;;;;5.53;3.40;;;15.50;38.90;;;;;;5037646;28;20522;-75
2021/10/25 14:15:05;;;;;;;4.40;3.50;;;15.50;38.80;;;;;;5035693;28;20944;-74
2021/10/25 14:17:32;;;;;;;8.20;4.30;;;15.60;38.90;;;;;;5011141;28;20893;-74